createdAt,value
2022-10-10T00:00:25.426Z,100.00
2022-10-10T00:01:30.322Z,100.00
2022-10-10T00:02:32.427Z,100.00
2022-10-10T00:03:34.312Z,100.00
2022-10-10T00:04:37.021Z,100.00
2022-10-10T00:05:40.049Z,100.00
2022-10-10T00:06:44.573Z,100.00
2022-10-10T00:07:46.487Z,100.00
2022-10-10T00:08:48.848Z,100.00
2022-10-10T00:09:50.945Z,100.00
2022-10-10T00:10:52.958Z,100.00
2022-10-10T00:11:54.832Z,100.00
2022-10-10T00:12:57.214Z,100.00
2022-10-10T00:13:59.259Z,100.00
2022-10-10T00:15:01.373Z,100.00
2022-10-10T00:16:04.042Z,100.00
2022-10-10T00:17:05.926Z,100.00
2022-10-10T00:18:07.921Z,100.00
2022-10-10T00:19:10.029Z,100.00
2022-10-10T00:20:15.556Z,100.00
2022-10-10T00:21:17.652Z,100.00
2022-10-10T00:22:19.531Z,100.00
2022-10-10T00:23:21.420Z,100.00
2022-10-10T00:24:23.589Z,100.00
2022-10-10T00:25:27.208Z,100.00
2022-10-10T00:26:29.308Z,100.00
2022-10-10T00:27:31.394Z,100.00
2022-10-10T00:28:33.593Z,100.00
2022-10-10T00:29:35.627Z,100.00
2022-10-10T00:30:39.069Z,100.00
2022-10-10T00:31:41.165Z,100.00
2022-10-10T00:32:43.039Z,100.00
2022-10-10T00:33:45.154Z,100.00
2022-10-10T00:34:47.029Z,100.00
2022-10-10T00:35:49.420Z,100.00
2022-10-10T00:36:51.420Z,100.00
2022-10-10T00:37:53.746Z,100.00
2022-10-10T00:38:55.627Z,100.00
2022-10-10T00:39:57.606Z,100.00
2022-10-10T00:40:59.899Z,100.00
2022-10-10T00:42:01.990Z,100.00
2022-10-10T00:43:03.902Z,100.00
2022-10-10T00:44:08.822Z,100.00
2022-10-10T00:45:32.647Z,100.00
2022-10-10T00:46:36.122Z,100.00
2022-10-10T00:47:38.249Z,100.00
2022-10-10T00:48:43.565Z,100.00
2022-10-10T00:49:45.490Z,100.00
2022-10-10T00:50:54.207Z,100.00
2022-10-10T00:51:58.137Z,100.00
2022-10-10T00:53:02.123Z,100.00
2022-10-10T00:54:07.818Z,100.00
2022-10-10T00:55:11.233Z,100.00
2022-10-10T00:56:16.242Z,100.00
2022-10-10T00:57:18.170Z,100.00
2022-10-10T00:58:21.127Z,100.00
2022-10-10T00:59:25.109Z,100.00
2022-10-10T01:00:27.111Z,100.00
2022-10-10T01:01:30.311Z,100.00
2022-10-10T01:02:32.240Z,100.00
2022-10-10T01:03:34.534Z,100.00
2022-10-10T01:04:45.016Z,100.00
2022-10-10T01:05:46.823Z,100.00
2022-10-10T01:06:49.193Z,100.00
2022-10-10T01:07:51.425Z,100.00
2022-10-10T01:08:55.858Z,100.00
2022-10-10T01:11:42.140Z,100.00
2022-10-10T01:12:59.385Z,100.00
2022-10-10T01:14:05.090Z,100.00
2022-10-10T01:15:30.889Z,100.00
2022-10-10T01:16:36.688Z,100.00
2022-10-10T01:17:42.457Z,100.00
2022-10-10T01:18:53.948Z,100.00
2022-10-10T01:20:11.655Z,100.00
2022-10-10T01:21:23.501Z,100.00
2022-10-10T01:22:35.354Z,100.00
2022-10-10T01:24:11.769Z,100.00
2022-10-10T01:25:32.609Z,100.00
2022-10-10T01:26:55.036Z,100.00
2022-10-10T01:28:03.446Z,100.00
2022-10-10T01:29:15.299Z,100.00
2022-10-10T01:30:21.201Z,100.00
2022-10-10T01:31:25.120Z,100.00
2022-10-10T01:32:55.104Z,100.00
2022-10-10T01:34:12.744Z,100.00
2022-10-10T01:35:33.798Z,100.00
2022-10-10T01:36:56.092Z,100.00
2022-10-10T01:38:29.461Z,100.00
2022-10-10T01:39:35.133Z,100.00
2022-10-10T01:40:53.218Z,100.00
2022-10-10T01:42:04.799Z,100.00
2022-10-10T01:43:08.181Z,100.00
2022-10-10T01:44:10.463Z,100.00
2022-10-10T01:45:12.459Z,100.00
2022-10-10T01:46:17.917Z,100.00
2022-10-10T01:47:21.487Z,100.00
2022-10-10T01:48:27.202Z,100.00
2022-10-10T01:49:32.184Z,100.00
2022-10-10T01:50:40.826Z,100.00
2022-10-10T01:51:49.348Z,100.00
2022-10-10T01:52:55.026Z,100.00
2022-10-10T01:54:10.096Z,100.00
2022-10-10T01:55:25.002Z,100.00
2022-10-10T01:56:50.365Z,100.00
2022-10-10T01:58:02.300Z,100.00
2022-10-10T01:59:20.027Z,100.00
2022-10-10T02:00:22.221Z,100.00
2022-10-10T02:03:01.507Z,100.00
2022-10-10T02:04:25.587Z,100.00
2022-10-10T02:05:48.457Z,100.00
2022-10-10T02:06:54.291Z,100.00
2022-10-10T02:08:08.609Z,100.00
2022-10-10T02:09:14.285Z,100.00
2022-10-10T02:10:20.104Z,100.00
2022-10-10T02:11:24.158Z,100.00
2022-10-10T02:12:29.016Z,100.00
2022-10-10T02:13:37.611Z,100.00
2022-10-10T02:14:45.661Z,100.00
2022-10-10T02:15:51.372Z,100.00
2022-10-10T02:16:54.955Z,100.00
2022-10-10T02:17:57.515Z,100.00
2022-10-10T02:19:02.275Z,100.00
2022-10-10T02:20:07.091Z,100.00
2022-10-10T02:21:09.507Z,100.00
2022-10-10T02:22:13.198Z,100.00
2022-10-10T02:23:17.124Z,100.00
2022-10-10T02:24:22.069Z,100.00
2022-10-10T02:25:30.512Z,100.00
2022-10-10T02:26:35.247Z,100.00
2022-10-10T02:27:41.040Z,100.00
2022-10-10T02:29:07.638Z,100.00
2022-10-10T02:30:11.459Z,100.00
2022-10-10T02:31:22.732Z,100.00
2022-10-10T02:32:40.150Z,100.00
2022-10-10T02:33:57.731Z,100.00
2022-10-10T02:36:18.263Z,100.00
2022-10-10T02:37:22.402Z,100.00
2022-10-10T02:38:25.669Z,100.00
2022-10-10T02:39:31.339Z,100.00
2022-10-10T02:40:35.129Z,100.00
2022-10-10T02:41:38.343Z,100.00
2022-10-10T02:42:41.605Z,100.00
2022-10-10T02:43:44.317Z,100.00
2022-10-10T02:44:46.960Z,100.00
2022-10-10T02:45:49.450Z,100.00
2022-10-10T02:46:52.047Z,100.00
2022-10-10T02:47:54.504Z,100.00
2022-10-10T02:48:58.377Z,100.00
2022-10-10T02:50:00.302Z,100.00
2022-10-10T02:51:03.025Z,100.00
2022-10-10T02:52:05.965Z,100.00
2022-10-10T02:53:07.863Z,100.00
2022-10-10T02:54:09.792Z,100.00
2022-10-10T02:55:11.678Z,100.00
2022-10-10T02:56:13.966Z,100.00
2022-10-10T02:57:15.979Z,100.00
2022-10-10T02:58:17.856Z,100.00
2022-10-10T02:59:20.169Z,100.00
2022-10-10T03:00:22.195Z,100.00
2022-10-10T03:01:24.572Z,100.00
2022-10-10T03:02:27.201Z,100.00
2022-10-10T03:03:29.115Z,100.00
2022-10-10T03:04:31.884Z,100.00
2022-10-10T03:05:34.504Z,100.00
2022-10-10T03:06:36.811Z,100.00
2022-10-10T03:07:38.864Z,100.00
2022-10-10T03:08:40.891Z,100.00
2022-10-10T03:09:43.010Z,100.00
2022-10-10T03:10:56.270Z,100.00
2022-10-10T03:11:58.433Z,100.00
2022-10-10T03:13:00.351Z,100.00
2022-10-10T03:14:02.354Z,100.00
2022-10-10T03:15:09.321Z,100.00
2022-10-10T03:16:09.771Z,100.00
2022-10-10T03:17:12.088Z,100.00
2022-10-10T03:18:14.102Z,100.00
2022-10-10T03:19:16.089Z,100.00
2022-10-10T03:20:18.236Z,100.00
2022-10-10T03:21:20.152Z,100.00
2022-10-10T03:22:22.298Z,100.00
2022-10-10T03:23:24.917Z,100.00
2022-10-10T03:24:27.194Z,100.00
2022-10-10T03:25:29.140Z,100.00
2022-10-10T03:26:31.877Z,100.00
2022-10-10T03:27:33.869Z,100.00
2022-10-10T03:28:39.154Z,100.00
2022-10-10T03:29:41.306Z,100.00
2022-10-10T03:30:43.282Z,100.00
2022-10-10T03:31:45.180Z,100.00
2022-10-10T03:32:47.072Z,100.00
2022-10-10T03:33:48.961Z,100.00
2022-10-10T03:34:50.896Z,100.00
2022-10-10T03:35:52.808Z,100.00
2022-10-10T03:36:54.820Z,100.00
2022-10-10T03:37:57.583Z,100.00
2022-10-10T03:38:59.765Z,100.00
2022-10-10T03:40:01.697Z,100.00
2022-10-10T03:41:03.830Z,100.00
2022-10-10T03:42:05.745Z,100.00
2022-10-10T03:43:09.163Z,100.00
2022-10-10T03:44:11.063Z,100.00
2022-10-10T03:45:13.080Z,100.00
2022-10-10T03:46:16.449Z,100.00
2022-10-10T03:47:18.592Z,100.00
2022-10-10T03:48:20.721Z,100.00
2022-10-10T03:49:22.617Z,100.00
2022-10-10T03:50:24.892Z,100.00
2022-10-10T03:51:26.906Z,100.00
2022-10-10T03:52:29.027Z,100.00
2022-10-10T03:53:31.387Z,100.00
2022-10-10T03:54:33.305Z,100.00
2022-10-10T03:55:35.201Z,100.00
2022-10-10T03:56:37.183Z,100.00
2022-10-10T03:57:39.106Z,100.00
2022-10-10T03:58:41.095Z,100.00
2022-10-10T03:59:43.186Z,100.00
2022-10-10T04:00:54.357Z,100.00
2022-10-10T04:01:56.595Z,100.00
2022-10-10T04:02:58.763Z,100.00
2022-10-10T04:04:00.886Z,100.00
2022-10-10T04:05:03.481Z,100.00
2022-10-10T04:06:07.005Z,100.00
2022-10-10T04:07:09.684Z,100.00
2022-10-10T04:08:11.687Z,100.00
2022-10-10T04:09:13.576Z,100.00
2022-10-10T04:10:15.765Z,100.00
2022-10-10T04:11:17.659Z,100.00
2022-10-10T04:12:19.632Z,100.00
2022-10-10T04:13:22.731Z,100.00
2022-10-10T04:14:25.065Z,100.00
2022-10-10T04:15:27.000Z,100.00
2022-10-10T04:16:29.197Z,100.00
2022-10-10T04:17:31.386Z,100.00
2022-10-10T04:18:33.298Z,100.00
2022-10-10T04:19:35.221Z,100.00
2022-10-10T04:20:37.519Z,100.00
2022-10-10T04:21:39.530Z,100.00
2022-10-10T04:22:42.004Z,100.00
2022-10-10T04:23:43.876Z,100.00
2022-10-10T04:24:45.777Z,100.00
2022-10-10T04:25:52.758Z,100.00
2022-10-10T04:26:55.031Z,100.00
2022-10-10T04:28:00.845Z,100.00
2022-10-10T04:29:00.979Z,100.00
2022-10-10T04:30:04.530Z,100.00
2022-10-10T04:31:06.987Z,100.00
2022-10-10T04:32:09.059Z,100.00
2022-10-10T04:33:11.289Z,100.00
2022-10-10T04:34:13.436Z,100.00
2022-10-10T04:35:15.537Z,100.00
2022-10-10T04:36:17.874Z,100.00
2022-10-10T04:37:19.808Z,100.00
2022-10-10T04:38:22.194Z,100.00
2022-10-10T04:39:24.472Z,100.00
2022-10-10T04:40:27.090Z,100.00
2022-10-10T04:41:29.300Z,100.00
2022-10-10T04:42:31.174Z,100.00
2022-10-10T04:43:33.087Z,100.00
2022-10-10T04:44:34.972Z,100.00
2022-10-10T04:45:37.836Z,100.00
2022-10-10T04:46:40.273Z,100.00
2022-10-10T04:47:42.145Z,100.00
2022-10-10T04:48:44.061Z,100.00
2022-10-10T04:49:46.131Z,100.00
2022-10-10T04:50:53.104Z,100.00
2022-10-10T04:51:55.056Z,100.00
2022-10-10T04:52:57.023Z,100.00
2022-10-10T04:53:59.315Z,100.00
2022-10-10T04:55:01.603Z,100.00
2022-10-10T04:56:04.092Z,100.00
2022-10-10T04:57:06.098Z,100.00
2022-10-10T04:58:08.002Z,100.00
2022-10-10T04:59:09.922Z,100.00
2022-10-10T05:00:12.734Z,100.00
2022-10-10T05:01:14.679Z,100.00
2022-10-10T05:02:16.893Z,100.00
2022-10-10T05:03:19.438Z,100.00
2022-10-10T05:04:21.372Z,100.00
2022-10-10T05:05:23.269Z,100.00
2022-10-10T05:06:25.353Z,100.00
2022-10-10T05:07:27.235Z,100.00
2022-10-10T05:08:29.157Z,100.00
2022-10-10T05:09:31.052Z,100.00
2022-10-10T05:10:37.105Z,100.00
2022-10-10T05:11:39.035Z,100.00
2022-10-10T05:12:41.101Z,100.00
2022-10-10T05:13:42.990Z,100.00
2022-10-10T05:14:48.084Z,100.00
2022-10-10T05:15:52.118Z,100.00
2022-10-10T05:16:54.160Z,100.00
2022-10-10T05:17:56.047Z,100.00
2022-10-10T05:18:58.206Z,100.00
2022-10-10T05:20:00.137Z,100.00
2022-10-10T05:21:03.934Z,100.00
2022-10-10T05:22:06.090Z,100.00
2022-10-10T05:23:08.121Z,100.00
2022-10-10T05:24:10.101Z,100.00
2022-10-10T05:25:12.387Z,100.00
2022-10-10T05:26:14.508Z,100.00
2022-10-10T05:27:16.400Z,100.00
2022-10-10T05:28:18.489Z,100.00
2022-10-10T05:29:20.623Z,100.00
2022-10-10T05:30:22.753Z,100.00
2022-10-10T05:31:24.702Z,100.00
2022-10-10T05:32:26.785Z,100.00
2022-10-10T05:33:29.135Z,100.00
2022-10-10T05:34:31.067Z,100.00
2022-10-10T05:35:32.955Z,100.00
2022-10-10T05:36:35.263Z,100.00
2022-10-10T05:37:37.706Z,100.00
2022-10-10T05:38:40.429Z,100.00
2022-10-10T05:39:42.343Z,100.00
2022-10-10T05:40:44.345Z,100.00
2022-10-10T05:41:46.242Z,100.00
2022-10-10T05:42:48.500Z,100.00
2022-10-10T05:43:50.681Z,100.00
2022-10-10T05:44:52.747Z,100.00
2022-10-10T05:45:55.025Z,100.00
2022-10-10T05:46:57.374Z,100.00
2022-10-10T05:47:59.303Z,100.00
2022-10-10T05:49:01.195Z,100.00
2022-10-10T05:50:04.392Z,100.00
2022-10-10T05:51:06.698Z,100.00
2022-10-10T05:52:09.077Z,100.00
2022-10-10T05:53:11.124Z,100.00
2022-10-10T05:54:13.171Z,100.00
2022-10-10T05:55:15.233Z,100.00
2022-10-10T05:56:17.505Z,100.00
2022-10-10T05:57:19.444Z,100.00
2022-10-10T05:58:21.328Z,100.00
2022-10-10T05:59:23.485Z,100.00
2022-10-10T06:00:25.488Z,100.00
2022-10-10T06:01:27.481Z,100.00
2022-10-10T06:02:29.441Z,100.00
2022-10-10T06:03:31.942Z,100.00
2022-10-10T06:04:33.855Z,100.00
2022-10-10T06:05:37.732Z,100.00
2022-10-10T06:06:41.791Z,100.00
2022-10-10T06:08:03.481Z,100.00
2022-10-10T06:08:48.706Z,100.00
2022-10-10T06:09:50.700Z,100.00
2022-10-10T06:10:53.182Z,100.00
2022-10-10T06:11:55.087Z,100.00
2022-10-10T06:12:57.248Z,100.00
2022-10-10T06:13:59.243Z,100.00
2022-10-10T06:15:01.358Z,100.00
2022-10-10T06:16:04.131Z,100.00
2022-10-10T06:17:06.013Z,100.00
2022-10-10T06:18:08.999Z,100.00
2022-10-10T06:19:14.789Z,100.00
2022-10-10T06:20:15.256Z,100.00
2022-10-10T06:21:17.961Z,100.00
2022-10-10T06:22:19.862Z,100.00
2022-10-10T06:23:21.747Z,100.00
2022-10-10T06:24:23.629Z,100.00
2022-10-10T06:25:39.411Z,100.00
2022-10-10T06:26:29.425Z,100.00
2022-10-10T06:27:31.295Z,100.00
2022-10-10T06:28:33.687Z,100.00
2022-10-10T06:29:35.758Z,100.00
2022-10-10T06:30:43.434Z,100.00
2022-10-10T06:31:45.472Z,100.00
2022-10-10T06:32:47.385Z,100.00
2022-10-10T06:33:49.309Z,100.00
2022-10-10T06:34:51.240Z,100.00
2022-10-10T06:35:53.259Z,100.00
2022-10-10T06:36:55.249Z,100.00
2022-10-10T06:37:57.200Z,100.00
2022-10-10T06:44:09.120Z,100.00
2022-10-10T06:45:11.140Z,100.00
2022-10-10T06:46:13.748Z,100.00
2022-10-10T06:47:15.932Z,100.00
2022-10-10T06:48:17.834Z,100.00
2022-10-10T06:49:20.039Z,100.00
2022-10-10T06:50:22.131Z,100.00
2022-10-10T06:51:24.597Z,100.00
2022-10-10T06:52:26.761Z,100.00
2022-10-10T06:53:28.974Z,100.00
2022-10-10T06:54:30.941Z,100.00
2022-10-10T06:55:32.938Z,100.00
2022-10-10T06:56:35.085Z,100.00
2022-10-10T06:57:36.975Z,100.00
2022-10-10T06:58:39.168Z,99.96
2022-10-10T06:59:41.044Z,100.00
2022-10-10T07:00:48.501Z,99.34
2022-10-10T07:01:50.582Z,99.33
2022-10-10T07:02:53.065Z,98.93
2022-10-10T07:03:55.632Z,98.26
2022-10-10T07:04:57.516Z,97.44
2022-10-10T07:06:01.138Z,97.27
2022-10-10T07:07:03.073Z,96.79
2022-10-10T07:08:05.213Z,96.91
2022-10-10T07:09:07.114Z,96.50
2022-10-10T07:10:14.953Z,96.20
2022-10-10T07:11:17.141Z,96.40
2022-10-10T07:12:19.186Z,96.41
2022-10-10T07:13:21.369Z,95.83
2022-10-10T07:14:23.356Z,95.57
2022-10-10T07:15:25.321Z,94.95
2022-10-10T07:16:27.326Z,94.75
2022-10-10T07:17:29.212Z,94.76
2022-10-10T07:18:31.679Z,94.58
2022-10-10T07:19:35.926Z,94.20
2022-10-10T07:20:38.873Z,93.50
2022-10-10T07:21:41.006Z,93.65
2022-10-10T07:22:42.897Z,94.22
2022-10-10T07:23:44.902Z,95.31
2022-10-10T07:24:46.795Z,95.74
2022-10-10T07:25:48.735Z,94.97
2022-10-10T07:26:50.825Z,94.04
2022-10-10T07:27:52.891Z,93.67
2022-10-10T07:28:54.778Z,93.55
2022-10-10T07:29:56.657Z,92.46
2022-10-10T07:31:01.842Z,91.99
2022-10-10T07:32:03.783Z,92.37
2022-10-10T07:33:05.891Z,92.65
2022-10-10T07:34:07.786Z,92.00
2022-10-10T07:35:09.887Z,91.59
2022-10-10T07:36:12.357Z,91.83
2022-10-10T07:37:14.263Z,92.10
2022-10-10T07:38:16.297Z,92.31
2022-10-10T07:39:19.617Z,92.24
2022-10-10T07:40:22.254Z,91.59
2022-10-10T07:41:24.190Z,91.16
2022-10-10T07:42:26.185Z,91.99
2022-10-10T07:43:28.087Z,91.76
2022-10-10T07:44:34.293Z,91.47
2022-10-10T07:45:37.354Z,91.16
2022-10-10T07:46:39.976Z,90.71
2022-10-10T07:47:42.136Z,91.41
2022-10-10T07:48:44.133Z,91.29
2022-10-10T07:49:47.459Z,90.89
2022-10-10T07:50:49.627Z,89.53
2022-10-10T07:51:51.514Z,89.30
2022-10-10T07:52:53.455Z,90.34
2022-10-10T07:55:08.944Z,89.29
2022-10-10T07:56:11.361Z,89.57
2022-10-10T07:57:13.839Z,89.46
2022-10-10T07:58:15.892Z,88.85
2022-10-10T07:59:20.079Z,89.60
2022-10-10T08:00:21.917Z,89.26
2022-10-10T08:01:23.836Z,88.96
2022-10-10T08:02:25.879Z,88.48
2022-10-10T08:03:29.006Z,87.60
2022-10-10T08:04:30.994Z,87.51
2022-10-10T08:05:32.968Z,86.90
2022-10-10T08:06:34.957Z,86.28
2022-10-10T08:07:36.847Z,86.71
2022-10-10T08:08:50.025Z,87.08
2022-10-10T08:09:43.383Z,87.16
2022-10-10T08:10:45.455Z,87.34
2022-10-10T08:11:47.546Z,87.92
2022-10-10T08:12:49.439Z,87.43
2022-10-10T08:13:51.543Z,86.88
2022-10-10T08:14:53.674Z,86.95
2022-10-10T08:15:55.963Z,86.80
2022-10-10T08:16:57.947Z,86.35
2022-10-10T08:17:59.837Z,86.07
2022-10-10T08:19:01.986Z,85.52
2022-10-10T08:20:05.316Z,85.42
2022-10-10T08:21:10.029Z,85.69
2022-10-10T08:22:12.352Z,85.70
2022-10-10T08:23:14.313Z,86.06
2022-10-10T08:24:16.497Z,86.09
2022-10-10T08:25:18.518Z,86.20
2022-10-10T08:26:20.533Z,86.02
2022-10-10T08:27:22.655Z,85.05
2022-10-10T08:28:25.350Z,84.32
2022-10-10T08:29:27.336Z,84.15
2022-10-10T08:30:29.321Z,83.63
2022-10-10T08:31:31.370Z,83.50
2022-10-10T08:32:33.290Z,84.55
2022-10-10T08:33:36.181Z,84.35
2022-10-10T08:34:38.073Z,83.92
2022-10-10T08:35:40.466Z,83.46
2022-10-10T08:36:42.868Z,84.35
2022-10-10T08:37:45.167Z,84.32
2022-10-10T08:38:48.030Z,83.76
2022-10-10T08:39:49.934Z,83.31
2022-10-10T08:40:55.657Z,84.11
2022-10-10T08:42:00.414Z,84.91
2022-10-10T08:43:06.147Z,84.79
2022-10-10T08:44:20.750Z,85.40
2022-10-10T08:45:26.263Z,84.76
2022-10-10T08:46:38.222Z,84.21
2022-10-10T08:47:49.833Z,84.18
2022-10-10T08:48:54.649Z,83.47
2022-10-10T08:51:26.753Z,82.60
2022-10-10T08:52:41.188Z,82.77
2022-10-10T08:53:46.947Z,83.17
2022-10-10T08:54:58.143Z,83.19
2022-10-10T08:55:58.477Z,82.22
2022-10-10T08:57:04.534Z,82.10
2022-10-10T08:58:16.265Z,81.61
2022-10-10T08:59:25.084Z,81.38
2022-10-10T09:00:31.021Z,81.01
2022-10-10T09:01:35.716Z,81.32
2022-10-10T09:02:54.542Z,81.39
2022-10-10T09:03:53.769Z,80.79
2022-10-10T09:04:56.693Z,80.03
2022-10-10T09:06:05.573Z,80.11
2022-10-10T09:07:37.743Z,80.27
2022-10-10T09:08:46.642Z,80.89
2022-10-10T09:10:13.255Z,80.37
2022-10-10T09:13:12.869Z,80.85
2022-10-10T09:14:35.163Z,80.82
2022-10-10T09:15:41.114Z,79.28
2022-10-10T09:17:12.835Z,79.64
2022-10-10T09:18:27.942Z,79.60
2022-10-10T09:19:42.897Z,79.66
2022-10-10T09:20:51.438Z,79.75
2022-10-10T09:21:57.244Z,79.44
2022-10-10T09:23:14.532Z,79.16
2022-10-10T09:24:25.809Z,78.29
2022-10-10T09:26:56.670Z,77.04
2022-10-10T09:28:14.713Z,77.17
2022-10-10T09:29:30.368Z,77.19
2022-10-10T09:30:36.372Z,76.54
2022-10-10T09:31:47.834Z,76.80
2022-10-10T09:34:19.216Z,75.74
2022-10-10T09:35:28.493Z,75.62
2022-10-10T09:36:34.983Z,76.32
2022-10-10T09:37:47.261Z,75.06
2022-10-10T09:38:51.480Z,74.74
2022-10-10T09:40:02.222Z,75.71
2022-10-10T09:41:18.072Z,75.34
2022-10-10T09:42:24.794Z,74.49
2022-10-10T09:43:33.517Z,74.53
2022-10-10T09:44:38.208Z,74.64
2022-10-10T09:45:44.247Z,73.85
2022-10-10T09:46:46.624Z,73.53
2022-10-10T09:47:52.353Z,74.14
2022-10-10T09:48:54.947Z,74.23
2022-10-10T09:49:58.765Z,73.96
2022-10-10T09:51:04.649Z,73.48
2022-10-10T09:52:28.760Z,73.29
2022-10-10T09:53:31.084Z,73.54
2022-10-10T09:54:33.344Z,73.48
2022-10-10T09:55:37.714Z,73.27
2022-10-10T09:56:43.622Z,73.16
2022-10-10T09:57:47.373Z,73.52
2022-10-10T09:58:52.232Z,72.33
2022-10-10T09:59:54.434Z,72.14
2022-10-10T10:01:20.966Z,72.47
2022-10-10T10:02:25.957Z,72.47
2022-10-10T10:03:28.219Z,72.40
2022-10-10T10:04:32.961Z,71.59
2022-10-10T10:05:35.197Z,71.20
2022-10-10T10:06:39.556Z,71.46
2022-10-10T10:07:45.388Z,71.65
2022-10-10T10:08:51.083Z,71.55
2022-10-10T10:09:56.721Z,71.36
2022-10-10T10:11:01.265Z,71.90
2022-10-10T10:12:04.775Z,71.31
2022-10-10T10:13:16.480Z,71.05
2022-10-10T10:15:34.670Z,70.26
2022-10-10T10:16:38.982Z,70.40
2022-10-10T10:17:41.732Z,70.27
2022-10-10T10:18:47.463Z,70.08
2022-10-10T10:19:49.887Z,69.93
2022-10-10T10:20:55.107Z,69.46
2022-10-10T10:21:57.288Z,69.23
2022-10-10T10:22:59.553Z,69.05
2022-10-10T10:24:23.193Z,68.91
2022-10-10T10:25:32.147Z,69.28
2022-10-10T10:26:48.275Z,68.53
2022-10-10T10:27:50.241Z,68.94
2022-10-10T10:28:53.254Z,69.40
2022-10-10T10:29:57.821Z,69.55
2022-10-10T10:31:00.271Z,69.53
2022-10-10T10:32:33.581Z,69.45
2022-10-10T10:33:59.237Z,69.06
2022-10-10T10:35:28.809Z,68.54
2022-10-10T10:36:43.996Z,69.19
2022-10-10T10:38:15.493Z,69.33
2022-10-10T10:39:36.605Z,68.76
2022-10-10T10:40:42.233Z,68.22
2022-10-10T10:43:42.604Z,67.49
2022-10-10T10:44:51.079Z,67.09
2022-10-10T10:46:11.419Z,67.42
2022-10-10T10:47:34.325Z,68.13
2022-10-10T10:48:43.072Z,67.08
2022-10-10T10:50:07.264Z,68.24
2022-10-10T10:51:29.867Z,67.39
2022-10-10T10:52:38.336Z,67.32
2022-10-10T10:53:44.234Z,66.87
2022-10-10T10:55:08.476Z,65.99
2022-10-10T10:56:37.386Z,66.19
2022-10-10T10:58:05.129Z,66.00
2022-10-10T10:59:38.490Z,66.00
2022-10-10T11:01:28.550Z,66.51
2022-10-10T11:01:51.847Z,67.42
2022-10-10T11:02:55.303Z,67.55
2022-10-10T11:05:18.786Z,67.66
2022-10-10T11:05:36.831Z,67.30
2022-10-10T11:06:53.909Z,67.69
2022-10-10T11:07:59.784Z,67.64
2022-10-10T11:09:05.406Z,67.64
2022-10-10T11:10:11.756Z,67.90
2022-10-10T11:11:23.060Z,67.64
2022-10-10T11:12:48.194Z,67.67
2022-10-10T11:14:10.857Z,67.80
2022-10-10T11:15:47.968Z,67.32
2022-10-10T11:16:49.487Z,67.38
2022-10-10T11:18:04.464Z,67.06
2022-10-10T11:19:28.707Z,67.50
2022-10-10T11:20:38.281Z,66.68
2022-10-10T11:22:01.965Z,65.87
2022-10-10T11:23:14.967Z,66.45
2022-10-10T11:24:37.439Z,66.39
2022-10-10T11:25:43.201Z,66.53
2022-10-10T11:26:49.043Z,66.43
2022-10-10T11:28:10.346Z,66.70
2022-10-10T11:29:25.071Z,66.52
2022-10-10T11:30:30.992Z,66.31
2022-10-10T11:31:48.907Z,66.08
2022-10-10T11:32:57.681Z,65.55
2022-10-10T11:34:06.401Z,65.36
2022-10-10T11:36:28.440Z,65.32
2022-10-10T11:37:33.817Z,65.52
2022-10-10T11:39:00.943Z,65.45
2022-10-10T11:40:05.575Z,65.04
2022-10-10T11:41:13.800Z,64.85
2022-10-10T11:42:28.758Z,64.62
2022-10-10T11:43:53.922Z,61.61
2022-10-10T11:45:02.713Z,61.71
2022-10-10T11:46:11.308Z,62.04
2022-10-10T11:47:26.060Z,61.50
2022-10-10T11:48:37.523Z,60.44
2022-10-10T11:50:00.309Z,59.90
2022-10-10T11:51:09.277Z,58.11
2022-10-10T11:52:39.694Z,58.60
2022-10-10T11:53:35.009Z,58.83
2022-10-10T11:55:00.804Z,59.13
2022-10-10T11:56:12.644Z,59.45
2022-10-10T11:57:21.480Z,59.41
2022-10-10T11:58:36.361Z,59.23
2022-10-10T11:59:45.079Z,59.15
2022-10-10T12:00:53.755Z,60.19
2022-10-10T12:02:02.045Z,60.15
2022-10-10T12:03:07.825Z,58.01
2022-10-10T12:04:10.124Z,57.17
2022-10-10T12:05:25.647Z,57.25
2022-10-10T12:06:34.499Z,57.52
2022-10-10T12:07:43.482Z,57.62
2022-10-10T12:08:50.440Z,57.31
2022-10-10T12:09:56.130Z,56.78
2022-10-10T12:11:07.663Z,56.98
2022-10-10T12:12:25.304Z,56.26
2022-10-10T12:13:36.784Z,56.76
2022-10-10T12:14:42.535Z,57.24
2022-10-10T12:15:50.052Z,56.86
2022-10-10T12:16:51.526Z,56.23
2022-10-10T12:17:53.925Z,55.90
2022-10-10T12:19:08.803Z,55.87
2022-10-10T12:20:17.715Z,55.82
2022-10-10T12:21:23.487Z,55.78
2022-10-10T12:22:27.762Z,55.43
2022-10-10T12:23:31.111Z,54.85
2022-10-10T12:24:42.259Z,55.17
2022-10-10T12:25:43.655Z,55.14
2022-10-10T12:26:58.646Z,55.04
2022-10-10T12:28:04.425Z,55.47
2022-10-10T12:29:09.905Z,54.53
2022-10-10T12:30:24.276Z,54.69
2022-10-10T12:31:30.009Z,53.66
2022-10-10T12:32:43.344Z,53.89
2022-10-10T12:33:49.101Z,54.05
2022-10-10T12:34:54.789Z,53.22
2022-10-10T12:35:57.084Z,52.63
2022-10-10T12:37:25.531Z,53.22
2022-10-10T12:38:27.711Z,53.41
2022-10-10T12:39:35.685Z,53.75
2022-10-10T12:42:00.473Z,52.42
2022-10-10T12:43:27.334Z,51.53
2022-10-10T12:44:45.851Z,51.70
2022-10-10T12:45:54.826Z,52.46
2022-10-10T12:47:19.119Z,51.35
2022-10-10T12:48:22.595Z,50.28
2022-10-10T12:49:25.259Z,50.06
2022-10-10T12:50:29.583Z,49.60
2022-10-10T12:51:35.305Z,48.96
2022-10-10T12:52:49.902Z,48.66
2022-10-10T12:53:55.666Z,47.30
2022-10-10T12:55:10.836Z,46.79
2022-10-10T12:56:13.436Z,47.30
2022-10-10T12:57:35.947Z,48.20
2022-10-10T12:58:40.510Z,47.84
2022-10-10T12:59:42.980Z,49.06
2022-10-10T13:00:47.427Z,49.07
2022-10-10T13:01:53.227Z,49.55
2022-10-10T13:02:59.102Z,49.51
2022-10-10T13:04:01.607Z,49.66
2022-10-10T13:05:06.131Z,49.46
2022-10-10T13:06:14.806Z,49.24
2022-10-10T13:07:20.182Z,49.70
2022-10-10T13:08:28.124Z,49.08
2022-10-10T13:09:35.426Z,49.60
2022-10-10T13:10:37.645Z,49.83
2022-10-10T13:11:54.419Z,50.45
2022-10-10T13:13:08.567Z,50.65
2022-10-10T13:14:12.642Z,50.93
2022-10-10T13:15:21.451Z,50.75
2022-10-10T13:16:32.815Z,51.18
2022-10-10T13:17:38.351Z,50.52
2022-10-10T13:18:43.625Z,50.58
2022-10-10T13:19:45.587Z,49.80
2022-10-10T13:20:47.801Z,49.77
2022-10-10T13:21:52.591Z,49.37
2022-10-10T13:22:56.144Z,49.53
2022-10-10T13:24:03.564Z,49.82
2022-10-10T13:25:08.723Z,50.17
2022-10-10T13:26:20.618Z,50.33
2022-10-10T13:27:31.210Z,50.26
2022-10-10T13:28:33.374Z,50.63
2022-10-10T13:29:36.479Z,50.50
2022-10-10T13:30:39.098Z,50.51
2022-10-10T13:31:42.982Z,50.56
2022-10-10T13:32:45.401Z,50.28
2022-10-10T13:33:48.354Z,50.97
2022-10-10T13:36:10.148Z,51.83
2022-10-10T13:37:14.950Z,51.77
2022-10-10T13:38:20.817Z,51.94
2022-10-10T13:39:24.608Z,51.86
2022-10-10T13:40:27.420Z,52.24
2022-10-10T13:41:30.051Z,52.16
2022-10-10T13:42:38.052Z,52.68
2022-10-10T13:43:41.119Z,51.78
2022-10-10T13:44:51.400Z,51.50
2022-10-10T13:45:58.646Z,51.32
2022-10-10T13:47:21.368Z,51.96
2022-10-10T13:48:35.887Z,51.81
2022-10-10T13:49:41.659Z,51.53
2022-10-10T13:50:51.211Z,51.10
2022-10-10T13:53:30.588Z,51.14
2022-10-10T13:55:51.840Z,50.76
2022-10-10T13:56:54.017Z,50.29
2022-10-10T13:58:00.835Z,50.76
2022-10-10T13:59:06.735Z,51.36
2022-10-10T14:01:39.568Z,52.51
2022-10-10T14:02:43.357Z,52.51
2022-10-10T14:03:49.155Z,53.35
2022-10-10T14:04:53.297Z,53.69
2022-10-10T14:05:55.906Z,53.57
2022-10-10T14:07:10.724Z,53.47
2022-10-10T14:08:22.074Z,53.62
2022-10-10T14:09:25.712Z,53.57
2022-10-10T14:10:30.530Z,52.66
2022-10-10T14:11:33.266Z,52.68
2022-10-10T14:12:54.371Z,52.13
2022-10-10T14:14:05.738Z,51.63
2022-10-10T14:15:09.479Z,51.70
2022-10-10T14:16:18.513Z,51.88
2022-10-10T14:17:20.878Z,52.44
2022-10-10T14:18:25.050Z,52.56
2022-10-10T14:19:29.894Z,52.60
2022-10-10T14:20:32.055Z,53.25
2022-10-10T14:21:33.974Z,53.67
2022-10-10T14:22:35.883Z,53.93
2022-10-10T14:23:38.472Z,54.40
2022-10-10T14:24:40.646Z,54.43